sensor_id;sensor_type;location;lat;lon;timestamp;P1;durP1;ratioP1;P2;durP2;ratioP2
18875;SDS011;9570;50.854;13.778;2023-06-14T00:01:10;3.10;;;2.80;;
18875;SDS011;9570;50.854;13.778;2023-06-14T00:03:38;5.20;;;3.00;;
18875;SDS011;9570;50.854;13.778;2023-06-14T00:06:04;4.67;;;3.40;;
18875;SDS011;9570;50.854;13.778;2023-06-14T00:08:29;3.40;;;3.03;;
18875;SDS011;9570;50.854;13.778;2023-06-14T00:10:55;3.83;;;3.00;;
18875;SDS011;9570;50.854;13.778;2023-06-14T00:13:20;3.63;;;3.30;;
18875;SDS011;9570;50.854;13.778;2023-06-14T00:15:46;3.50;;;2.93;;
18875;SDS011;9570;50.854;13.778;2023-06-14T00:18:12;5.10;;;3.40;;
18875;SDS011;9570;50.854;13.778;2023-06-14T00:20:39;4.57;;;2.93;;
18875;SDS011;9570;50.854;13.778;2023-06-14T00:23:06;4.50;;;2.97;;
18875;SDS011;9570;50.854;13.778;2023-06-14T00:25:32;3.93;;;2.90;;
18875;SDS011;9570;50.854;13.778;2023-06-14T00:27:57;4.17;;;3.00;;
18875;SDS011;9570;50.854;13.778;2023-06-14T00:30:23;5.20;;;3.00;;
18875;SDS011;9570;50.854;13.778;2023-06-14T00:32:49;4.20;;;3.00;;
18875;SDS011;9570;50.854;13.778;2023-06-14T00:35:15;5.20;;;3.17;;
18875;SDS011;9570;50.854;13.778;2023-06-14T00:37:40;4.37;;;3.20;;
18875;SDS011;9570;50.854;13.778;2023-06-14T00:40:06;4.43;;;3.17;;
18875;SDS011;9570;50.854;13.778;2023-06-14T00:42:32;4.90;;;3.03;;
18875;SDS011;9570;50.854;13.778;2023-06-14T00:44:59;3.70;;;2.93;;
18875;SDS011;9570;50.854;13.778;2023-06-14T00:47:25;3.33;;;3.03;;
18875;SDS011;9570;50.854;13.778;2023-06-14T00:49:52;4.00;;;2.90;;
18875;SDS011;9570;50.854;13.778;2023-06-14T00:52:18;4.30;;;3.40;;
18875;SDS011;9570;50.854;13.778;2023-06-14T00:54:45;7.23;;;3.13;;
18875;SDS011;9570;50.854;13.778;2023-06-14T00:57:11;3.20;;;2.90;;
18875;SDS011;9570;50.854;13.778;2023-06-14T00:59:38;6.27;;;3.73;;
18875;SDS011;9570;50.854;13.778;2023-06-14T01:02:10;4.83;;;3.50;;
18875;SDS011;9570;50.854;13.778;2023-06-14T01:04:36;4.53;;;3.20;;
18875;SDS011;9570;50.854;13.778;2023-06-14T01:07:08;3.30;;;3.00;;
18875;SDS011;9570;50.854;13.778;2023-06-14T01:12:21;4.40;;;3.10;;
18875;SDS011;9570;50.854;13.778;2023-06-14T01:14:51;3.67;;;3.33;;
18875;SDS011;9570;50.854;13.778;2023-06-14T01:17:20;4.53;;;3.83;;
18875;SDS011;9570;50.854;13.778;2023-06-14T01:19:48;3.57;;;3.27;;
18875;SDS011;9570;50.854;13.778;2023-06-14T01:22:14;3.80;;;3.20;;
18875;SDS011;9570;50.854;13.778;2023-06-14T01:24:39;4.87;;;3.00;;
18875;SDS011;9570;50.854;13.778;2023-06-14T01:27:10;3.20;;;2.90;;
18875;SDS011;9570;50.854;13.778;2023-06-14T01:29:38;5.77;;;3.00;;
18875;SDS011;9570;50.854;13.778;2023-06-14T01:32:04;3.67;;;3.30;;
18875;SDS011;9570;50.854;13.778;2023-06-14T01:34:30;3.83;;;3.43;;
18875;SDS011;9570;50.854;13.778;2023-06-14T01:36:56;6.33;;;3.23;;
18875;SDS011;9570;50.854;13.778;2023-06-14T01:39:22;3.67;;;3.00;;
18875;SDS011;9570;50.854;13.778;2023-06-14T01:41:48;4.40;;;3.20;;
18875;SDS011;9570;50.854;13.778;2023-06-14T01:44:14;5.30;;;3.50;;
18875;SDS011;9570;50.854;13.778;2023-06-14T01:46:42;5.23;;;3.10;;
18875;SDS011;9570;50.854;13.778;2023-06-14T01:49:08;3.70;;;3.07;;
18875;SDS011;9570;50.854;13.778;2023-06-14T01:51:34;5.00;;;3.37;;
18875;SDS011;9570;50.854;13.778;2023-06-14T01:54:00;4.53;;;3.43;;
18875;SDS011;9570;50.854;13.778;2023-06-14T01:56:26;3.40;;;3.10;;
18875;SDS011;9570;50.854;13.778;2023-06-14T01:58:51;4.30;;;3.10;;
18875;SDS011;9570;50.854;13.778;2023-06-14T02:01:18;3.80;;;3.17;;
18875;SDS011;9570;50.854;13.778;2023-06-14T02:03:46;6.33;;;3.00;;
18875;SDS011;9570;50.854;13.778;2023-06-14T02:06:12;3.77;;;3.37;;
18875;SDS011;9570;50.854;13.778;2023-06-14T02:08:37;5.07;;;2.97;;
18875;SDS011;9570;50.854;13.778;2023-06-14T02:11:03;5.33;;;3.20;;
18875;SDS011;9570;50.854;13.778;2023-06-14T02:13:28;5.40;;;3.73;;
18875;SDS011;9570;50.854;13.778;2023-06-14T02:15:54;3.90;;;3.40;;
18875;SDS011;9570;50.854;13.778;2023-06-14T02:18:20;5.03;;;2.97;;
18875;SDS011;9570;50.854;13.778;2023-06-14T02:20:46;4.80;;;3.07;;
18875;SDS011;9570;50.854;13.778;2023-06-14T02:23:12;4.17;;;2.90;;
18875;SDS011;9570;50.854;13.778;2023-06-14T02:25:37;5.97;;;3.40;;
18875;SDS011;9570;50.854;13.778;2023-06-14T02:28:04;4.73;;;3.33;;
18875;SDS011;9570;50.854;13.778;2023-06-14T02:30:30;3.63;;;3.17;;
18875;SDS011;9570;50.854;13.778;2023-06-14T02:32:55;6.17;;;3.20;;
18875;SDS011;9570;50.854;13.778;2023-06-14T02:35:21;4.47;;;3.20;;
18875;SDS011;9570;50.854;13.778;2023-06-14T02:37:49;4.60;;;3.40;;
18875;SDS011;9570;50.854;13.778;2023-06-14T02:40:16;3.93;;;3.23;;
18875;SDS011;9570;50.854;13.778;2023-06-14T02:42:41;4.53;;;3.10;;
18875;SDS011;9570;50.854;13.778;2023-06-14T02:45:07;5.37;;;3.50;;
18875;SDS011;9570;50.854;13.778;2023-06-14T02:47:33;4.77;;;3.10;;
18875;SDS011;9570;50.854;13.778;2023-06-14T02:49:58;6.30;;;3.57;;
18875;SDS011;9570;50.854;13.778;2023-06-14T02:52:24;3.50;;;2.97;;
18875;SDS011;9570;50.854;13.778;2023-06-14T02:54:50;3.33;;;3.00;;
18875;SDS011;9570;50.854;13.778;2023-06-14T02:57:15;7.87;;;3.10;;
18875;SDS011;9570;50.854;13.778;2023-06-14T02:59:41;3.63;;;3.30;;
18875;SDS011;9570;50.854;13.778;2023-06-14T03:02:07;3.47;;;3.10;;
18875;SDS011;9570;50.854;13.778;2023-06-14T03:04:32;4.93;;;3.37;;
18875;SDS011;9570;50.854;13.778;2023-06-14T03:07:02;4.23;;;3.33;;
18875;SDS011;9570;50.854;13.778;2023-06-14T03:09:27;4.03;;;3.10;;
18875;SDS011;9570;50.854;13.778;2023-06-14T03:11:53;7.00;;;3.50;;
18875;SDS011;9570;50.854;13.778;2023-06-14T03:14:19;3.70;;;3.00;;
18875;SDS011;9570;50.854;13.778;2023-06-14T03:16:46;4.60;;;3.20;;
18875;SDS011;9570;50.854;13.778;2023-06-14T03:19:11;3.70;;;3.27;;
18875;SDS011;9570;50.854;13.778;2023-06-14T03:21:37;5.53;;;3.53;;
18875;SDS011;9570;50.854;13.778;2023-06-14T03:24:03;4.03;;;3.13;;
18875;SDS011;9570;50.854;13.778;2023-06-14T03:26:29;6.53;;;3.63;;
18875;SDS011;9570;50.854;13.778;2023-06-14T03:28:56;3.73;;;3.30;;
18875;SDS011;9570;50.854;13.778;2023-06-14T03:31:21;5.17;;;3.30;;
18875;SDS011;9570;50.854;13.778;2023-06-14T03:33:48;3.73;;;3.20;;
18875;SDS011;9570;50.854;13.778;2023-06-14T03:36:14;5.50;;;3.33;;
18875;SDS011;9570;50.854;13.778;2023-06-14T03:38:39;3.47;;;3.17;;
18875;SDS011;9570;50.854;13.778;2023-06-14T03:41:05;3.83;;;3.37;;
18875;SDS011;9570;50.854;13.778;2023-06-14T03:43:30;4.83;;;3.30;;
18875;SDS011;9570;50.854;13.778;2023-06-14T03:45:56;5.30;;;3.30;;
18875;SDS011;9570;50.854;13.778;2023-06-14T03:48:21;4.90;;;3.23;;
18875;SDS011;9570;50.854;13.778;2023-06-14T03:50:47;5.03;;;3.30;;
18875;SDS011;9570;50.854;13.778;2023-06-14T03:53:12;3.67;;;3.30;;
18875;SDS011;9570;50.854;13.778;2023-06-14T03:55:38;4.77;;;3.40;;
18875;SDS011;9570;50.854;13.778;2023-06-14T03:58:04;5.03;;;2.90;;
18875;SDS011;9570;50.854;13.778;2023-06-14T04:00:29;4.33;;;3.50;;
18875;SDS011;9570;50.854;13.778;2023-06-14T04:02:55;4.87;;;3.57;;
18875;SDS011;9570;50.854;13.778;2023-06-14T04:05:20;3.70;;;3.30;;
18875;SDS011;9570;50.854;13.778;2023-06-14T04:07:46;6.50;;;3.10;;
18875;SDS011;9570;50.854;13.778;2023-06-14T04:10:14;5.23;;;3.20;;
18875;SDS011;9570;50.854;13.778;2023-06-14T04:12:41;4.30;;;2.80;;
18875;SDS011;9570;50.854;13.778;2023-06-14T04:15:07;3.60;;;3.13;;
18875;SDS011;9570;50.854;13.778;2023-06-14T04:17:33;4.53;;;3.27;;
18875;SDS011;9570;50.854;13.778;2023-06-14T04:19:59;3.50;;;3.03;;
18875;SDS011;9570;50.854;13.778;2023-06-14T04:22:25;3.70;;;3.03;;
18875;SDS011;9570;50.854;13.778;2023-06-14T04:24:55;5.17;;;3.07;;
18875;SDS011;9570;50.854;13.778;2023-06-14T04:27:21;6.03;;;3.60;;
18875;SDS011;9570;50.854;13.778;2023-06-14T04:29:51;4.20;;;3.30;;
18875;SDS011;9570;50.854;13.778;2023-06-14T04:32:25;9.30;;;4.03;;
18875;SDS011;9570;50.854;13.778;2023-06-14T04:34:54;3.93;;;3.50;;
18875;SDS011;9570;50.854;13.778;2023-06-14T04:37:23;4.17;;;3.23;;
18875;SDS011;9570;50.854;13.778;2023-06-14T04:39:49;4.97;;;3.47;;
18875;SDS011;9570;50.854;13.778;2023-06-14T04:42:16;4.70;;;3.40;;
18875;SDS011;9570;50.854;13.778;2023-06-14T04:44:45;4.33;;;3.27;;
18875;SDS011;9570;50.854;13.778;2023-06-14T04:47:12;4.03;;;3.30;;
18875;SDS011;9570;50.854;13.778;2023-06-14T04:49:39;4.13;;;3.33;;
18875;SDS011;9570;50.854;13.778;2023-06-14T04:52:06;5.53;;;3.80;;
18875;SDS011;9570;50.854;13.778;2023-06-14T04:54:32;4.33;;;3.40;;
18875;SDS011;9570;50.854;13.778;2023-06-14T04:56:58;5.70;;;3.50;;
18875;SDS011;9570;50.854;13.778;2023-06-14T04:59:24;3.57;;;3.13;;
18875;SDS011;9570;50.854;13.778;2023-06-14T05:01:50;5.20;;;3.30;;
18875;SDS011;9570;50.854;13.778;2023-06-14T05:04:16;4.53;;;2.90;;
18875;SDS011;9570;50.854;13.778;2023-06-14T05:06:43;6.43;;;3.40;;
18875;SDS011;9570;50.854;13.778;2023-06-14T05:09:10;4.13;;;3.40;;
18875;SDS011;9570;50.854;13.778;2023-06-14T05:11:39;3.97;;;3.57;;
18875;SDS011;9570;50.854;13.778;2023-06-14T05:14:04;4.27;;;3.10;;
18875;SDS011;9570;50.854;13.778;2023-06-14T05:16:31;4.33;;;3.40;;
18875;SDS011;9570;50.854;13.778;2023-06-14T05:18:56;4.87;;;3.70;;
18875;SDS011;9570;50.854;13.778;2023-06-14T05:21:23;3.70;;;3.37;;
18875;SDS011;9570;50.854;13.778;2023-06-14T05:23:48;4.20;;;3.43;;
18875;SDS011;9570;50.854;13.778;2023-06-14T05:26:13;4.83;;;3.40;;
18875;SDS011;9570;50.854;13.778;2023-06-14T05:28:39;6.90;;;3.77;;
18875;SDS011;9570;50.854;13.778;2023-06-14T05:31:05;7.00;;;4.47;;
18875;SDS011;9570;50.854;13.778;2023-06-14T05:33:30;6.20;;;4.53;;
18875;SDS011;9570;50.854;13.778;2023-06-14T05:35:56;4.93;;;4.10;;
18875;SDS011;9570;50.854;13.778;2023-06-14T05:38:21;5.37;;;4.47;;
18875;SDS011;9570;50.854;13.778;2023-06-14T05:40:47;7.10;;;4.97;;
18875;SDS011;9570;50.854;13.778;2023-06-14T05:43:12;7.33;;;4.90;;
18875;SDS011;9570;50.854;13.778;2023-06-14T05:45:38;8.87;;;4.97;;
18875;SDS011;9570;50.854;13.778;2023-06-14T05:48:03;6.00;;;4.10;;
18875;SDS011;9570;50.854;13.778;2023-06-14T05:50:29;5.13;;;3.70;;
18875;SDS011;9570;50.854;13.778;2023-06-14T05:52:55;5.17;;;3.60;;
18875;SDS011;9570;50.854;13.778;2023-06-14T05:55:20;5.20;;;3.43;;
18875;SDS011;9570;50.854;13.778;2023-06-14T05:57:46;6.97;;;3.90;;
18875;SDS011;9570;50.854;13.778;2023-06-14T06:00:13;5.70;;;3.73;;
18875;SDS011;9570;50.854;13.778;2023-06-14T06:02:42;6.57;;;3.20;;
18875;SDS011;9570;50.854;13.778;2023-06-14T06:05:09;5.00;;;3.10;;
18875;SDS011;9570;50.854;13.778;2023-06-14T06:07:36;4.20;;;3.33;;
18875;SDS011;9570;50.854;13.778;2023-06-14T06:10:02;7.90;;;3.50;;
18875;SDS011;9570;50.854;13.778;2023-06-14T06:12:28;4.60;;;3.10;;
18875;SDS011;9570;50.854;13.778;2023-06-14T06:14:54;6.40;;;3.27;;
18875;SDS011;9570;50.854;13.778;2023-06-14T06:17:20;6.13;;;3.43;;
18875;SDS011;9570;50.854;13.778;2023-06-14T06:19:45;4.47;;;3.57;;
18875;SDS011;9570;50.854;13.778;2023-06-14T06:22:11;3.43;;;3.13;;
18875;SDS011;9570;50.854;13.778;2023-06-14T06:24:36;5.20;;;3.57;;
18875;SDS011;9570;50.854;13.778;2023-06-14T06:27:02;5.10;;;3.10;;
18875;SDS011;9570;50.854;13.778;2023-06-14T06:29:28;5.03;;;3.40;;
18875;SDS011;9570;50.854;13.778;2023-06-14T06:31:53;4.80;;;3.90;;
18875;SDS011;9570;50.854;13.778;2023-06-14T06:34:21;3.90;;;3.40;;
18875;SDS011;9570;50.854;13.778;2023-06-14T06:36:46;4.63;;;3.37;;
18875;SDS011;9570;50.854;13.778;2023-06-14T06:39:12;5.17;;;3.83;;
18875;SDS011;9570;50.854;13.778;2023-06-14T06:41:37;5.37;;;4.00;;
18875;SDS011;9570;50.854;13.778;2023-06-14T06:44:05;3.97;;;3.57;;
18875;SDS011;9570;50.854;13.778;2023-06-14T06:46:31;4.90;;;3.90;;
18875;SDS011;9570;50.854;13.778;2023-06-14T06:48:58;4.93;;;3.93;;
18875;SDS011;9570;50.854;13.778;2023-06-14T06:51:23;4.30;;;3.90;;
18875;SDS011;9570;50.854;13.778;2023-06-14T06:53:52;5.37;;;3.80;;
18875;SDS011;9570;50.854;13.778;2023-06-14T06:56:19;4.10;;;3.70;;
18875;SDS011;9570;50.854;13.778;2023-06-14T06:58:44;4.43;;;4.03;;
18875;SDS011;9570;50.854;13.778;2023-06-14T07:01:10;7.53;;;4.63;;
18875;SDS011;9570;50.854;13.778;2023-06-14T07:03:36;5.93;;;3.83;;
18875;SDS011;9570;50.854;13.778;2023-06-14T07:06:02;6.03;;;3.80;;
18875;SDS011;9570;50.854;13.778;2023-06-14T07:08:28;6.73;;;4.17;;
18875;SDS011;9570;50.854;13.778;2023-06-14T07:10:53;5.90;;;4.30;;
18875;SDS011;9570;50.854;13.778;2023-06-14T07:13:18;6.37;;;3.90;;
18875;SDS011;9570;50.854;13.778;2023-06-14T07:15:44;4.63;;;3.77;;
18875;SDS011;9570;50.854;13.778;2023-06-14T07:18:09;4.00;;;3.60;;
18875;SDS011;9570;50.854;13.778;2023-06-14T07:20:35;4.63;;;3.90;;
18875;SDS011;9570;50.854;13.778;2023-06-14T07:23:03;3.90;;;3.50;;
18875;SDS011;9570;50.854;13.778;2023-06-14T07:25:28;3.77;;;3.30;;
18875;SDS011;9570;50.854;13.778;2023-06-14T07:27:54;4.53;;;3.60;;
18875;SDS011;9570;50.854;13.778;2023-06-14T07:30:20;10.70;;;6.43;;
18875;SDS011;9570;50.854;13.778;2023-06-14T07:32:45;4.53;;;4.13;;
18875;SDS011;9570;50.854;13.778;2023-06-14T07:35:11;4.00;;;3.53;;
18875;SDS011;9570;50.854;13.778;2023-06-14T07:37:37;4.53;;;3.87;;
18875;SDS011;9570;50.854;13.778;2023-06-14T07:40:02;5.03;;;3.40;;
18875;SDS011;9570;50.854;13.778;2023-06-14T07:42:33;4.40;;;3.70;;
18875;SDS011;9570;50.854;13.778;2023-06-14T07:44:59;4.93;;;4.07;;
18875;SDS011;9570;50.854;13.778;2023-06-14T07:47:25;5.07;;;4.30;;
18875;SDS011;9570;50.854;13.778;2023-06-14T07:49:50;4.97;;;3.90;;
18875;SDS011;9570;50.854;13.778;2023-06-14T07:52:16;4.00;;;3.33;;
18875;SDS011;9570;50.854;13.778;2023-06-14T07:54:42;5.00;;;3.50;;
18875;SDS011;9570;50.854;13.778;2023-06-14T07:57:08;5.03;;;3.33;;
18875;SDS011;9570;50.854;13.778;2023-06-14T07:59:33;3.87;;;3.30;;
18875;SDS011;9570;50.854;13.778;2023-06-14T08:01:59;4.33;;;3.87;;
18875;SDS011;9570;50.854;13.778;2023-06-14T08:04:24;4.67;;;3.80;;
18875;SDS011;9570;50.854;13.778;2023-06-14T08:06:50;3.60;;;3.10;;
18875;SDS011;9570;50.854;13.778;2023-06-14T08:09:16;4.37;;;3.60;;
18875;SDS011;9570;50.854;13.778;2023-06-14T08:11:41;6.23;;;3.67;;
18875;SDS011;9570;50.854;13.778;2023-06-14T08:14:07;3.90;;;2.90;;
18875;SDS011;9570;50.854;13.778;2023-06-14T08:16:33;3.97;;;3.40;;
18875;SDS011;9570;50.854;13.778;2023-06-14T08:18:58;3.63;;;3.30;;
18875;SDS011;9570;50.854;13.778;2023-06-14T08:21:23;7.77;;;3.50;;
18875;SDS011;9570;50.854;13.778;2023-06-14T08:23:53;4.80;;;3.40;;
18875;SDS011;9570;50.854;13.778;2023-06-14T08:26:19;4.80;;;3.00;;
18875;SDS011;9570;50.854;13.778;2023-06-14T08:28:46;3.20;;;2.90;;
18875;SDS011;9570;50.854;13.778;2023-06-14T08:31:11;4.30;;;3.00;;
18875;SDS011;9570;50.854;13.778;2023-06-14T08:33:37;4.73;;;3.50;;
18875;SDS011;9570;50.854;13.778;2023-06-14T08:36:04;3.77;;;3.20;;
18875;SDS011;9570;50.854;13.778;2023-06-14T08:38:29;3.93;;;3.20;;
18875;SDS011;9570;50.854;13.778;2023-06-14T08:40:56;3.30;;;3.00;;
18875;SDS011;9570;50.854;13.778;2023-06-14T08:43:23;5.73;;;3.70;;
18875;SDS011;9570;50.854;13.778;2023-06-14T08:45:48;4.80;;;3.30;;
18875;SDS011;9570;50.854;13.778;2023-06-14T08:48:22;3.90;;;3.50;;
18875;SDS011;9570;50.854;13.778;2023-06-14T08:50:51;7.63;;;3.73;;
18875;SDS011;9570;50.854;13.778;2023-06-14T08:53:26;4.22;;;3.30;;
18875;SDS011;9570;50.854;13.778;2023-06-14T08:55:53;3.78;;;3.47;;
18875;SDS011;9570;50.854;13.778;2023-06-14T08:58:20;5.00;;;3.30;;
18875;SDS011;9570;50.854;13.778;2023-06-14T09:00:49;5.28;;;3.65;;
18875;SDS011;9570;50.854;13.778;2023-06-14T09:03:15;4.45;;;3.45;;
18875;SDS011;9570;50.854;13.778;2023-06-14T09:05:42;3.55;;;3.17;;
18875;SDS011;9570;50.854;13.778;2023-06-14T09:08:08;3.28;;;2.97;;
18875;SDS011;9570;50.854;13.778;2023-06-14T09:10:35;3.47;;;3.17;;
18875;SDS011;9570;50.854;13.778;2023-06-14T09:13:02;4.15;;;3.40;;
18875;SDS011;9570;50.854;13.778;2023-06-14T09:15:29;4.97;;;3.17;;
18875;SDS011;9570;50.854;13.778;2023-06-14T09:17:55;5.47;;;3.25;;
18875;SDS011;9570;50.854;13.778;2023-06-14T09:20:21;3.90;;;3.25;;
18875;SDS011;9570;50.854;13.778;2023-06-14T09:22:49;3.40;;;3.10;;
18875;SDS011;9570;50.854;13.778;2023-06-14T09:25:14;3.33;;;2.83;;
18875;SDS011;9570;50.854;13.778;2023-06-14T09:27:40;3.92;;;3.40;;
18875;SDS011;9570;50.854;13.778;2023-06-14T09:30:08;5.25;;;2.80;;
18875;SDS011;9570;50.854;13.778;2023-06-14T09:32:40;4.55;;;2.88;;
18875;SDS011;9570;50.854;13.778;2023-06-14T09:35:06;5.57;;;2.90;;
18875;SDS011;9570;50.854;13.778;2023-06-14T09:37:32;2.92;;;2.50;;
18875;SDS011;9570;50.854;13.778;2023-06-14T09:39:59;2.67;;;2.38;;
18875;SDS011;9570;50.854;13.778;2023-06-14T09:42:24;3.43;;;2.57;;
18875;SDS011;9570;50.854;13.778;2023-06-14T09:44:51;2.80;;;2.50;;
18875;SDS011;9570;50.854;13.778;2023-06-14T09:47:17;2.83;;;2.50;;
18875;SDS011;9570;50.854;13.778;2023-06-14T09:49:43;3.10;;;2.60;;
18875;SDS011;9570;50.854;13.778;2023-06-14T09:52:16;2.60;;;2.40;;
18875;SDS011;9570;50.854;13.778;2023-06-14T09:54:44;2.92;;;2.30;;
18875;SDS011;9570;50.854;13.778;2023-06-14T09:57:16;2.92;;;2.63;;
18875;SDS011;9570;50.854;13.778;2023-06-14T09:59:45;4.00;;;2.70;;
18875;SDS011;9570;50.854;13.778;2023-06-14T10:02:17;2.55;;;2.35;;
18875;SDS011;9570;50.854;13.778;2023-06-14T10:04:50;3.28;;;2.30;;
18875;SDS011;9570;50.854;13.778;2023-06-14T10:07:28;2.53;;;2.30;;
18875;SDS011;9570;50.854;13.778;2023-06-14T10:09:57;3.53;;;2.65;;
18875;SDS011;9570;50.854;13.778;2023-06-14T10:12:23;3.25;;;2.60;;
18875;SDS011;9570;50.854;13.778;2023-06-14T10:14:49;2.70;;;2.50;;
18875;SDS011;9570;50.854;13.778;2023-06-14T10:17:33;3.28;;;2.78;;
18875;SDS011;9570;50.854;13.778;2023-06-14T10:20:12;3.40;;;2.50;;
18875;SDS011;9570;50.854;13.778;2023-06-14T10:22:49;4.20;;;2.78;;
18875;SDS011;9570;50.854;13.778;2023-06-14T10:25:30;3.78;;;3.35;;
18875;SDS011;9570;50.854;13.778;2023-06-14T10:30:37;3.40;;;3.03;;
18875;SDS011;9570;50.854;13.778;2023-06-14T10:33:06;3.83;;;3.15;;
18875;SDS011;9570;50.854;13.778;2023-06-14T10:35:32;3.38;;;3.08;;
18875;SDS011;9570;50.854;13.778;2023-06-14T10:38:14;3.22;;;2.92;;
18875;SDS011;9570;50.854;13.778;2023-06-14T10:40:39;3.10;;;2.80;;
18875;SDS011;9570;50.854;13.778;2023-06-14T10:43:24;4.85;;;3.05;;
18875;SDS011;9570;50.854;13.778;2023-06-14T10:48:42;3.75;;;2.80;;
18875;SDS011;9570;50.854;13.778;2023-06-14T10:51:29;3.40;;;3.10;;
18875;SDS011;9570;50.854;13.778;2023-06-14T10:54:11;3.83;;;3.17;;
18875;SDS011;9570;50.854;13.778;2023-06-14T10:56:52;3.33;;;2.90;;
18875;SDS011;9570;50.854;13.778;2023-06-14T10:59:19;3.73;;;3.40;;
18875;SDS011;9570;50.854;13.778;2023-06-14T11:04:51;3.30;;;2.90;;
18875;SDS011;9570;50.854;13.778;2023-06-14T11:07:25;3.23;;;2.93;;
18875;SDS011;9570;50.854;13.778;2023-06-14T11:12:44;3.87;;;3.50;;
18875;SDS011;9570;50.854;13.778;2023-06-14T11:15:12;4.03;;;3.23;;
18875;SDS011;9570;50.854;13.778;2023-06-14T11:17:38;4.80;;;3.13;;
18875;SDS011;9570;50.854;13.778;2023-06-14T11:22:43;3.60;;;3.00;;
18875;SDS011;9570;50.854;13.778;2023-06-14T11:25:09;7.30;;;3.40;;
18875;SDS011;9570;50.854;13.778;2023-06-14T11:27:35;4.80;;;3.17;;
18875;SDS011;9570;50.854;13.778;2023-06-14T11:30:01;4.37;;;3.03;;
18875;SDS011;9570;50.854;13.778;2023-06-14T11:32:27;4.60;;;2.83;;
18875;SDS011;9570;50.854;13.778;2023-06-14T11:34:52;3.20;;;2.90;;
18875;SDS011;9570;50.854;13.778;2023-06-14T11:37:18;3.33;;;3.03;;
18875;SDS011;9570;50.854;13.778;2023-06-14T11:39:43;3.07;;;2.77;;
18875;SDS011;9570;50.854;13.778;2023-06-14T11:42:13;3.10;;;2.73;;
18875;SDS011;9570;50.854;13.778;2023-06-14T11:44:40;4.40;;;2.60;;
18875;SDS011;9570;50.854;13.778;2023-06-14T11:47:05;3.20;;;2.70;;
18875;SDS011;9570;50.854;13.778;2023-06-14T11:49:35;4.37;;;2.93;;
18875;SDS011;9570;50.854;13.778;2023-06-14T11:52:01;2.97;;;2.40;;
18875;SDS011;9570;50.854;13.778;2023-06-14T11:54:26;2.97;;;2.50;;
18875;SDS011;9570;50.854;13.778;2023-06-14T11:56:52;3.50;;;2.40;;
18875;SDS011;9570;50.854;13.778;2023-06-14T11:59:17;2.47;;;2.13;;
18875;SDS011;9570;50.854;13.778;2023-06-14T12:01:45;2.43;;;2.23;;
18875;SDS011;9570;50.854;13.778;2023-06-14T12:04:10;2.33;;;2.10;;
18875;SDS011;9570;50.854;13.778;2023-06-14T12:06:36;2.17;;;2.00;;
18875;SDS011;9570;50.854;13.778;2023-06-14T12:09:05;1.80;;;1.70;;
18875;SDS011;9570;50.854;13.778;2023-06-14T12:11:37;3.20;;;2.30;;
18875;SDS011;9570;50.854;13.778;2023-06-14T12:14:03;2.00;;;1.80;;
18875;SDS011;9570;50.854;13.778;2023-06-14T12:16:33;2.17;;;1.97;;
18875;SDS011;9570;50.854;13.778;2023-06-14T12:19:01;2.03;;;1.83;;
18875;SDS011;9570;50.854;13.778;2023-06-14T12:21:36;1.97;;;1.77;;
18875;SDS011;9570;50.854;13.778;2023-06-14T12:24:03;3.43;;;1.70;;
18875;SDS011;9570;50.854;13.778;2023-06-14T12:26:31;2.23;;;1.90;;
18875;SDS011;9570;50.854;13.778;2023-06-14T12:28:57;3.00;;;1.70;;
18875;SDS011;9570;50.854;13.778;2023-06-14T12:31:23;3.40;;;2.10;;
18875;SDS011;9570;50.854;13.778;2023-06-14T12:33:49;2.43;;;2.23;;
18875;SDS011;9570;50.854;13.778;2023-06-14T12:36:15;4.50;;;1.87;;
18875;SDS011;9570;50.854;13.778;2023-06-14T12:38:42;3.17;;;1.90;;
18875;SDS011;9570;50.854;13.778;2023-06-14T12:41:07;4.47;;;2.50;;
18875;SDS011;9570;50.854;13.778;2023-06-14T12:43:33;3.07;;;2.30;;
18875;SDS011;9570;50.854;13.778;2023-06-14T12:45:59;2.70;;;2.50;;
18875;SDS011;9570;50.854;13.778;2023-06-14T12:48:25;2.73;;;2.53;;
18875;SDS011;9570;50.854;13.778;2023-06-14T12:50:52;3.70;;;2.60;;
18875;SDS011;9570;50.854;13.778;2023-06-14T12:53:17;3.03;;;2.60;;
18875;SDS011;9570;50.854;13.778;2023-06-14T12:55:43;2.47;;;2.27;;
18875;SDS011;9570;50.854;13.778;2023-06-14T12:58:09;4.37;;;2.30;;
18875;SDS011;9570;50.854;13.778;2023-06-14T13:00:35;2.90;;;2.60;;
18875;SDS011;9570;50.854;13.778;2023-06-14T13:03:00;5.17;;;2.30;;
18875;SDS011;9570;50.854;13.778;2023-06-14T13:05:26;2.80;;;2.30;;
18875;SDS011;9570;50.854;13.778;2023-06-14T13:07:51;3.13;;;2.33;;
18875;SDS011;9570;50.854;13.778;2023-06-14T13:10:17;3.97;;;2.50;;
18875;SDS011;9570;50.854;13.778;2023-06-14T13:12:43;3.23;;;2.40;;
18875;SDS011;9570;50.854;13.778;2023-06-14T13:15:09;2.27;;;2.17;;
18875;SDS011;9570;50.854;13.778;2023-06-14T13:17:35;4.30;;;3.00;;
18875;SDS011;9570;50.854;13.778;2023-06-14T13:20:06;4.30;;;3.07;;
18875;SDS011;9570;50.854;13.778;2023-06-14T13:22:33;2.93;;;2.43;;
18875;SDS011;9570;50.854;13.778;2023-06-14T13:24:59;3.93;;;2.70;;
18875;SDS011;9570;50.854;13.778;2023-06-14T13:27:25;3.43;;;2.97;;
18875;SDS011;9570;50.854;13.778;2023-06-14T13:29:51;3.17;;;2.90;;
18875;SDS011;9570;50.854;13.778;2023-06-14T13:32:17;3.63;;;3.17;;
18875;SDS011;9570;50.854;13.778;2023-06-14T13:34:42;4.57;;;3.40;;
18875;SDS011;9570;50.854;13.778;2023-06-14T13:37:08;4.43;;;3.03;;
18875;SDS011;9570;50.854;13.778;2023-06-14T13:39:33;3.33;;;2.87;;
18875;SDS011;9570;50.854;13.778;2023-06-14T13:42:02;4.23;;;3.00;;
18875;SDS011;9570;50.854;13.778;2023-06-14T13:44:28;3.50;;;3.20;;
18875;SDS011;9570;50.854;13.778;2023-06-14T13:46:53;4.83;;;2.87;;
18875;SDS011;9570;50.854;13.778;2023-06-14T13:49:18;2.93;;;2.73;;
18875;SDS011;9570;50.854;13.778;2023-06-14T13:51:44;2.93;;;2.60;;
18875;SDS011;9570;50.854;13.778;2023-06-14T13:54:12;3.93;;;2.83;;
18875;SDS011;9570;50.854;13.778;2023-06-14T13:56:39;2.90;;;2.60;;
18875;SDS011;9570;50.854;13.778;2023-06-14T13:59:04;2.90;;;2.70;;
18875;SDS011;9570;50.854;13.778;2023-06-14T14:01:30;3.00;;;2.70;;
18875;SDS011;9570;50.854;13.778;2023-06-14T14:03:55;2.73;;;2.43;;
18875;SDS011;9570;50.854;13.778;2023-06-14T14:06:21;3.03;;;2.40;;
18875;SDS011;9570;50.854;13.778;2023-06-14T14:08:47;2.70;;;2.37;;
18875;SDS011;9570;50.854;13.778;2023-06-14T14:11:13;2.70;;;2.40;;
18875;SDS011;9570;50.854;13.778;2023-06-14T14:13:38;3.57;;;2.73;;
18875;SDS011;9570;50.854;13.778;2023-06-14T14:16:06;4.10;;;2.73;;
18875;SDS011;9570;50.854;13.778;2023-06-14T14:18:31;2.70;;;2.50;;
18875;SDS011;9570;50.854;13.778;2023-06-14T14:20:57;3.10;;;2.40;;
18875;SDS011;9570;50.854;13.778;2023-06-14T14:23:23;4.37;;;2.97;;
18875;SDS011;9570;50.854;13.778;2023-06-14T14:25:48;3.13;;;2.57;;
18875;SDS011;9570;50.854;13.778;2023-06-14T14:28:14;3.70;;;2.77;;
18875;SDS011;9570;50.854;13.778;2023-06-14T14:30:41;2.80;;;2.60;;
18875;SDS011;9570;50.854;13.778;2023-06-14T14:33:06;3.10;;;2.80;;
18875;SDS011;9570;50.854;13.778;2023-06-14T14:35:32;3.17;;;2.83;;
18875;SDS011;9570;50.854;13.778;2023-06-14T14:37:58;4.33;;;2.50;;
18875;SDS011;9570;50.854;13.778;2023-06-14T14:40:23;3.23;;;2.87;;
18875;SDS011;9570;50.854;13.778;2023-06-14T14:42:49;2.80;;;2.50;;
18875;SDS011;9570;50.854;13.778;2023-06-14T14:45:15;5.03;;;2.80;;
18875;SDS011;9570;50.854;13.778;2023-06-14T14:47:40;4.03;;;2.73;;
18875;SDS011;9570;50.854;13.778;2023-06-14T14:50:06;5.50;;;2.83;;
18875;SDS011;9570;50.854;13.778;2023-06-14T14:52:34;4.77;;;3.03;;
18875;SDS011;9570;50.854;13.778;2023-06-14T14:54:59;3.10;;;2.80;;
18875;SDS011;9570;50.854;13.778;2023-06-14T14:57:25;3.53;;;3.00;;
18875;SDS011;9570;50.854;13.778;2023-06-14T14:59:51;6.17;;;3.13;;
18875;SDS011;9570;50.854;13.778;2023-06-14T15:02:17;5.03;;;3.30;;